Ponte Vedra Beach, Florida
Current Conditions -  °F | °C
As of 6:53 AM on Friday 21 Nov 2014 (Local Time) from KCRG Reporting Station
Clear Clear  
Wind Chill: 39°   Ceiling: Unl
Heat Index: 39°   Visibility: 10mi
Dew Point: 36°   Wind: 0mph
Humidity: 89%   Direction: NA
Pressure: 30.31"   Gusts: NA
Location:  30.24°N, 81.39°W
Report Text: KCRG 211153Z 00000KT 10SM CLR 04/02 A3031 RMK AO2 SLP264 T00390022 10050 20022 53012
Loading
Personal Weather Stations






























Interactive Weather Map New forecast layout! Learn more

10-Day Weather Forecast

Advertisements
Track Severe Weather on mobile